Carnival Conquest — 3FPQ9 — position and weather

sailwx.info

Track history (hours):
 
Tides and Currents Weather Stations Pressure Air Temp Water Temp Dewpoint Dewpoint Depression Visibility Wind Speed Wind Dir Waves Ship Positions

Carnival Conquest

Operator: Carnival Cruise Lines

Last reported at 2018-May-22 11:00 UTC. Time now 2018-May-24 02:33 UTC.
Position N 24°00' W 075°36'.

Type: Ship. MMSI: 357657000.

Wind from 090 at 18 knots

Barometer 1016.0 mb
Air temperature 26.0 ° C
Dewpoint 19.0 ° C
Water temperature 27.0 ° C

Date/timePositionNaut miles runAvg speedWind from/ knotsBaromVisibWave heightAir tempDewpointWater temp
2018-May-22 11:00N 24°00' W 075°36'124 2.4 090 / 181016.0 26.019.027.0
2018-May-20 08:00N 25°42' W 076°54'13314.5 120 / 301019.0 5.4 24.021.026.0
2018-May-19 22:52N 26°14' W 079°17'616.7
2018-May-19 22:30N 26°13' W 079°24'917.2
2018-May-19 22:00N 26°11' W 079°33'917.6
2018-May-19 21:30N 26°09' W 079°43'917.5
2018-May-19 21:00N 26°08' W 079°52'816.7
2018-May-19 20:30N 26°07' W 080°02'5 9.0
2018-May-19 19:57N 26°06' W 080°07'0 0.2
2018-May-19 19:27N 26°06' W 080°07'0 0.0
2018-May-19 18:57N 26°06' W 080°07'0 0.0
2018-May-19 18:27N 26°06' W 080°07'0 0.0
2018-May-19 17:57N 26°06' W 080°07'0 0.0
2018-May-19 17:27N 26°06' W 080°07'0 0.0
2018-May-19 16:57N 26°06' W 080°07'0 0.0
2018-May-19 16:27N 26°06' W 080°07'0 0.0
2018-May-19 15:57N 26°06' W 080°07'0 0.0
2018-May-19 15:27N 26°06' W 080°07'0 0.0
2018-May-19 14:57N 26°06' W 080°07'0 0.0
2018-May-19 14:27N 26°06' W 080°07'0 0.0
2018-May-19 13:57N 26°06' W 080°07'0 0.0
2018-May-19 13:27N 26°06' W 080°07'0 0.0
2018-May-19 12:57N 26°06' W 080°07'0 0.0
2018-May-19 12:27N 26°06' W 080°07'0 0.0
2018-May-19 11:57N 26°06' W 080°07'0 0.0
2018-May-19 11:27N 26°06' W 080°07'0 0.0
2018-May-19 10:57N 26°06' W 080°07'0 0.0
2018-May-19 10:27N 26°06' W 080°07'0 0.6
2018-May-19 10:01N 26°06' W 080°07'2 4.7
2018-May-19 09:30N 26°06' W 080°04'611.2
2018-May-19 09:00N 26°03' W 079°59'815.8
2018-May-19 08:30N 25°58' W 079°52'1019.7
2018-May-19 08:00N 25°51' W 079°44'918.1
2018-May-19 07:30N 25°43' W 079°41'1020.4
2018-May-19 07:00N 25°33' W 079°40'36919.4
2018-May-18 12:00N 21°48' W 085°00'232 8.6 100 / 121011.0 26.019.029.0
2018-May-17 09:00N 18°36' W 082°42'3919.3 120 / 241013.0 5.4 27.023.026.0
2018-May-17 07:00N 18°18' W 083°18'252 5.2 120 / 301012.0 27.023.028.0
2018-May-15 07:00N 18°00' W 087°42'14516.6 130 / 251011.0 5.4 27.024.028.0
2018-May-14 22:14N 20°21' W 087°05'415.5
2018-May-14 22:00N 20°24' W 087°03'612.6
2018-May-14 21:30N 20°29' W 086°59'1 1.0
2018-May-14 21:00N 20°29' W 086°59'0 0.0
2018-May-14 20:30N 20°29' W 086°59'0 0.0
2018-May-14 20:00N 20°29' W 086°59'0 0.0
2018-May-14 19:30N 20°29' W 086°59'0 0.0
2018-May-14 18:57N 20°29' W 086°59'0 0.0
2018-May-14 18:30N 20°29' W 086°59'0 0.0
2018-May-14 17:57N 20°29' W 086°59'0 0.0
2018-May-14 17:30N 20°29' W 086°59'0 0.0
2018-May-14 17:00N 20°29' W 086°59'0 0.0
2018-May-14 16:27N 20°29' W 086°59'0 0.0
2018-May-14 15:54N 20°29' W 086°59'0 0.0
2018-May-14 15:30N 20°29' W 086°59'0 0.0
2018-May-14 15:00N 20°29' W 086°59'0 0.0
2018-May-14 14:30N 20°29' W 086°59'0 0.0
2018-May-14 14:00N 20°29' W 086°59'0 0.0
2018-May-14 13:30N 20°29' W 086°59'0 0.0
2018-May-14 12:57N 20°29' W 086°59'0 0.0
2018-May-14 12:30N 20°29' W 086°59'50313.9
2018-May-13 00:22N 25°28' W 079°40'514.4
2018-May-13 00:00N 25°33' W 079°40'714.2
2018-May-12 23:30N 25°40' W 079°40'714.0
2018-May-12 23:00N 25°47' W 079°41'713.7
2018-May-12 22:30N 25°52' W 079°45'714.3
2018-May-12 22:00N 25°57' W 079°51'714.3
2018-May-12 21:30N 26°01' W 079°58'714.1
2018-May-12 21:00N 26°05' W 080°04'3 5.6
2018-May-12 20:29N 26°06' W 080°07'0 0.1
2018-May-12 19:59N 26°06' W 080°07'0 0.0
2018-May-12 19:29N 26°06' W 080°07'0 0.0
2018-May-12 18:59N 26°06' W 080°07'0 0.0
2018-May-12 18:29N 26°06' W 080°07'0 0.0
2018-May-12 17:59N 26°06' W 080°07'0 0.0
2018-May-12 17:29N 26°06' W 080°07'0 0.0
2018-May-12 16:59N 26°06' W 080°07'0 0.0
2018-May-12 16:29N 26°06' W 080°07'0 0.0
2018-May-12 15:59N 26°06' W 080°07'0 0.0
2018-May-12 15:26N 26°06' W 080°07'0 0.0
2018-May-12 14:59N 26°06' W 080°07'0 0.0
2018-May-12 14:29N 26°06' W 080°07'0 0.0
2018-May-12 13:59N 26°06' W 080°07'0 0.0
2018-May-12 13:29N 26°06' W 080°07'0 0.0
2018-May-12 12:59N 26°06' W 080°07'0 0.0
2018-May-12 12:29N 26°06' W 080°07'0 0.0
2018-May-12 11:59N 26°06' W 080°07'0 0.0
2018-May-12 11:29N 26°06' W 080°07'  
Track history (hours):
 
Tides and Currents Weather Stations Pressure Air Temp Water Temp Dewpoint Dewpoint Depression Visibility Wind Speed Wind Dir Waves Ship Positions

Carnival Conquest

Operator: Carnival Cruise Lines

Last reported at 2018-May-22 11:00 UTC. Time now 2018-May-24 02:33 UTC.
Position N 24°00' W 075°36'.

Type: Ship. MMSI: 357657000.

Wind from 090 at 18 knots

Barometer 1016.0 mb
Air temperature 26.0 ° C
Dewpoint 19.0 ° C
Water temperature 27.0 ° C

Date/timePositionNaut miles runAvg speedWind from/ knotsBaromVisibWave heightAir tempDewpointWater temp
2018-May-22 11:00N 24°00' W 075°36'124 2.4 090 / 181016.0 26.019.027.0
2018-May-20 08:00N 25°42' W 076°54'13314.5 120 / 301019.0 5.4 24.021.026.0
2018-May-19 22:52N 26°14' W 079°17'616.7
2018-May-19 22:30N 26°13' W 079°24'917.2
2018-May-19 22:00N 26°11' W 079°33'917.6
2018-May-19 21:30N 26°09' W 079°43'917.5
2018-May-19 21:00N 26°08' W 079°52'816.7
2018-May-19 20:30N 26°07' W 080°02'5 9.0
2018-May-19 19:57N 26°06' W 080°07'0 0.2
2018-May-19 19:27N 26°06' W 080°07'0 0.0
2018-May-19 18:57N 26°06' W 080°07'0 0.0
2018-May-19 18:27N 26°06' W 080°07'0 0.0
2018-May-19 17:57N 26°06' W 080°07'0 0.0
2018-May-19 17:27N 26°06' W 080°07'0 0.0
2018-May-19 16:57N 26°06' W 080°07'0 0.0
2018-May-19 16:27N 26°06' W 080°07'0 0.0
2018-May-19 15:57N 26°06' W 080°07'0 0.0
2018-May-19 15:27N 26°06' W 080°07'0 0.0
2018-May-19 14:57N 26°06' W 080°07'0 0.0
2018-May-19 14:27N 26°06' W 080°07'0 0.0
2018-May-19 13:57N 26°06' W 080°07'0 0.0
2018-May-19 13:27N 26°06' W 080°07'0 0.0
2018-May-19 12:57N 26°06' W 080°07'0 0.0
2018-May-19 12:27N 26°06' W 080°07'0 0.0
2018-May-19 11:57N 26°06' W 080°07'0 0.0
2018-May-19 11:27N 26°06' W 080°07'0 0.0
2018-May-19 10:57N 26°06' W 080°07'0 0.0
2018-May-19 10:27N 26°06' W 080°07'0 0.6
2018-May-19 10:01N 26°06' W 080°07'2 4.7
2018-May-19 09:30N 26°06' W 080°04'611.2
2018-May-19 09:00N 26°03' W 079°59'815.8
2018-May-19 08:30N 25°58' W 079°52'1019.7
2018-May-19 08:00N 25°51' W 079°44'918.1
2018-May-19 07:30N 25°43' W 079°41'1020.4
2018-May-19 07:00N 25°33' W 079°40'36919.4
2018-May-18 12:00N 21°48' W 085°00'232 8.6 100 / 121011.0 26.019.029.0
2018-May-17 09:00N 18°36' W 082°42'3919.3 120 / 241013.0 5.4 27.023.026.0
2018-May-17 07:00N 18°18' W 083°18'252 5.2 120 / 301012.0 27.023.028.0
2018-May-15 07:00N 18°00' W 087°42'14516.6 130 / 251011.0 5.4 27.024.028.0
2018-May-14 22:14N 20°21' W 087°05'415.5
2018-May-14 22:00N 20°24' W 087°03'612.6
2018-May-14 21:30N 20°29' W 086°59'1 1.0
2018-May-14 21:00N 20°29' W 086°59'0 0.0
2018-May-14 20:30N 20°29' W 086°59'0 0.0
2018-May-14 20:00N 20°29' W 086°59'0 0.0
2018-May-14 19:30N 20°29' W 086°59'0 0.0
2018-May-14 18:57N 20°29' W 086°59'0 0.0
2018-May-14 18:30N 20°29' W 086°59'0 0.0
2018-May-14 17:57N 20°29' W 086°59'0 0.0
2018-May-14 17:30N 20°29' W 086°59'0 0.0
2018-May-14 17:00N 20°29' W 086°59'0 0.0
2018-May-14 16:27N 20°29' W 086°59'0 0.0
2018-May-14 15:54N 20°29' W 086°59'0 0.0
2018-May-14 15:30N 20°29' W 086°59'0 0.0
2018-May-14 15:00N 20°29' W 086°59'0 0.0
2018-May-14 14:30N 20°29' W 086°59'0 0.0
2018-May-14 14:00N 20°29' W 086°59'0 0.0
2018-May-14 13:30N 20°29' W 086°59'0 0.0
2018-May-14 12:57N 20°29' W 086°59'0 0.0
2018-May-14 12:30N 20°29' W 086°59'50313.9
2018-May-13 00:22N 25°28' W 079°40'514.4
2018-May-13 00:00N 25°33' W 079°40'714.2
2018-May-12 23:30N 25°40' W 079°40'714.0
2018-May-12 23:00N 25°47' W 079°41'713.7
2018-May-12 22:30N 25°52' W 079°45'714.3
2018-May-12 22:00N 25°57' W 079°51'714.3
2018-May-12 21:30N 26°01' W 079°58'714.1
2018-May-12 21:00N 26°05' W 080°04'3 5.6
2018-May-12 20:29N 26°06' W 080°07'0 0.1
2018-May-12 19:59N 26°06' W 080°07'0 0.0
2018-May-12 19:29N 26°06' W 080°07'0 0.0
2018-May-12 18:59N 26°06' W 080°07'0 0.0
2018-May-12 18:29N 26°06' W 080°07'0 0.0
2018-May-12 17:59N 26°06' W 080°07'0 0.0
2018-May-12 17:29N 26°06' W 080°07'0 0.0
2018-May-12 16:59N 26°06' W 080°07'0 0.0
2018-May-12 16:29N 26°06' W 080°07'0 0.0
2018-May-12 15:59N 26°06' W 080°07'0 0.0
2018-May-12 15:26N 26°06' W 080°07'0 0.0
2018-May-12 14:59N 26°06' W 080°07'0 0.0
2018-May-12 14:29N 26°06' W 080°07'0 0.0
2018-May-12 13:59N 26°06' W 080°07'0 0.0
2018-May-12 13:29N 26°06' W 080°07'0 0.0
2018-May-12 12:59N 26°06' W 080°07'0 0.0
2018-May-12 12:29N 26°06' W 080°07'0 0.0
2018-May-12 11:59N 26°06' W 080°07'0 0.0
2018-May-12 11:29N 26°06' W 080°07'  

Dump ship's entire track history